sensor_id;sensor_type;location;lat;lon;timestamp;P1;durP1;ratioP1;P2;durP2;ratioP2
22030;SDS011;11179;52.106;21.024;2022-07-23T00:02:23;29.00;;;15.63;;
22030;SDS011;11179;52.106;21.024;2022-07-23T00:04:48;28.20;;;14.77;;
22030;SDS011;11179;52.106;21.024;2022-07-23T00:07:13;23.03;;;14.03;;
22030;SDS011;11179;52.106;21.024;2022-07-23T00:09:39;35.10;;;15.40;;
22030;SDS011;11179;52.106;21.024;2022-07-23T00:12:05;29.00;;;15.90;;
22030;SDS011;11179;52.106;21.024;2022-07-23T00:14:30;30.70;;;15.83;;
22030;SDS011;11179;52.106;21.024;2022-07-23T00:16:55;35.87;;;15.17;;
22030;SDS011;11179;52.106;21.024;2022-07-23T00:19:21;31.93;;;14.57;;
22030;SDS011;11179;52.106;21.024;2022-07-23T00:21:46;30.70;;;14.00;;
22030;SDS011;11179;52.106;21.024;2022-07-23T00:24:11;35.63;;;15.57;;
22030;SDS011;11179;52.106;21.024;2022-07-23T00:26:37;37.50;;;14.57;;
22030;SDS011;11179;52.106;21.024;2022-07-23T00:29:02;43.87;;;16.20;;
22030;SDS011;11179;52.106;21.024;2022-07-23T00:31:27;57.63;;;17.90;;
22030;SDS011;11179;52.106;21.024;2022-07-23T00:33:53;45.73;;;16.33;;
22030;SDS011;11179;52.106;21.024;2022-07-23T00:36:21;34.87;;;15.80;;
22030;SDS011;11179;52.106;21.024;2022-07-23T00:38:48;32.00;;;15.50;;
22030;SDS011;11179;52.106;21.024;2022-07-23T00:41:14;36.53;;;15.47;;
22030;SDS011;11179;52.106;21.024;2022-07-23T00:43:40;28.30;;;15.23;;
22030;SDS011;11179;52.106;21.024;2022-07-23T00:46:05;28.60;;;14.67;;
22030;SDS011;11179;52.106;21.024;2022-07-23T00:48:30;35.83;;;16.40;;
22030;SDS011;11179;52.106;21.024;2022-07-23T00:50:56;29.07;;;15.40;;
22030;SDS011;11179;52.106;21.024;2022-07-23T00:53:21;31.70;;;14.80;;
22030;SDS011;11179;52.106;21.024;2022-07-23T00:55:47;35.47;;;14.37;;
22030;SDS011;11179;52.106;21.024;2022-07-23T00:58:13;44.53;;;15.97;;
22030;SDS011;11179;52.106;21.024;2022-07-23T01:00:39;32.73;;;15.03;;
22030;SDS011;11179;52.106;21.024;2022-07-23T01:03:05;28.07;;;15.00;;
22030;SDS011;11179;52.106;21.024;2022-07-23T01:05:30;21.47;;;13.63;;
22030;SDS011;11179;52.106;21.024;2022-07-23T01:07:56;24.97;;;15.43;;
22030;SDS011;11179;52.106;21.024;2022-07-23T01:10:21;22.63;;;14.00;;
22030;SDS011;11179;52.106;21.024;2022-07-23T01:12:56;28.83;;;13.50;;
22030;SDS011;11179;52.106;21.024;2022-07-23T01:15:22;29.60;;;14.63;;
22030;SDS011;11179;52.106;21.024;2022-07-23T01:17:48;26.93;;;14.30;;
22030;SDS011;11179;52.106;21.024;2022-07-23T01:20:13;26.63;;;14.13;;
22030;SDS011;11179;52.106;21.024;2022-07-23T01:22:39;27.43;;;14.40;;
22030;SDS011;11179;52.106;21.024;2022-07-23T01:25:04;20.93;;;12.83;;
22030;SDS011;11179;52.106;21.024;2022-07-23T01:27:30;31.47;;;14.00;;
22030;SDS011;11179;52.106;21.024;2022-07-23T01:29:56;27.80;;;14.20;;
22030;SDS011;11179;52.106;21.024;2022-07-23T01:32:22;21.20;;;14.60;;
22030;SDS011;11179;52.106;21.024;2022-07-23T01:34:47;23.50;;;13.83;;
22030;SDS011;11179;52.106;21.024;2022-07-23T01:37:13;26.93;;;14.47;;
22030;SDS011;11179;52.106;21.024;2022-07-23T01:39:38;27.90;;;14.00;;
22030;SDS011;11179;52.106;21.024;2022-07-23T01:42:04;26.10;;;15.40;;
22030;SDS011;11179;52.106;21.024;2022-07-23T01:44:30;28.30;;;14.87;;
22030;SDS011;11179;52.106;21.024;2022-07-23T01:46:55;22.90;;;14.73;;
22030;SDS011;11179;52.106;21.024;2022-07-23T01:49:21;25.03;;;13.83;;
22030;SDS011;11179;52.106;21.024;2022-07-23T01:51:46;23.80;;;14.30;;
22030;SDS011;11179;52.106;21.024;2022-07-23T01:54:30;32.10;;;15.50;;
22030;SDS011;11179;52.106;21.024;2022-07-23T01:56:58;24.97;;;14.53;;
22030;SDS011;11179;52.106;21.024;2022-07-23T01:59:24;28.03;;;15.07;;
22030;SDS011;11179;52.106;21.024;2022-07-23T02:01:50;26.50;;;14.10;;
22030;SDS011;11179;52.106;21.024;2022-07-23T02:04:16;28.10;;;14.53;;
22030;SDS011;11179;52.106;21.024;2022-07-23T02:06:45;20.40;;;13.47;;
22030;SDS011;11179;52.106;21.024;2022-07-23T02:09:11;24.03;;;14.90;;
22030;SDS011;11179;52.106;21.024;2022-07-23T02:11:36;21.37;;;12.97;;
22030;SDS011;11179;52.106;21.024;2022-07-23T02:14:01;20.67;;;14.07;;
22030;SDS011;11179;52.106;21.024;2022-07-23T02:16:27;24.50;;;14.53;;
22030;SDS011;11179;52.106;21.024;2022-07-23T02:18:52;25.63;;;15.53;;
22030;SDS011;11179;52.106;21.024;2022-07-23T02:21:18;28.30;;;15.77;;
22030;SDS011;11179;52.106;21.024;2022-07-23T02:23:43;29.90;;;15.63;;
22030;SDS011;11179;52.106;21.024;2022-07-23T02:26:08;50.20;;;17.50;;
22030;SDS011;11179;52.106;21.024;2022-07-23T02:28:34;45.67;;;17.53;;
22030;SDS011;11179;52.106;21.024;2022-07-23T02:30:59;39.70;;;17.87;;
22030;SDS011;11179;52.106;21.024;2022-07-23T02:33:24;37.03;;;16.63;;
22030;SDS011;11179;52.106;21.024;2022-07-23T02:35:50;42.93;;;16.40;;
22030;SDS011;11179;52.106;21.024;2022-07-23T02:38:16;35.83;;;17.40;;
22030;SDS011;11179;52.106;21.024;2022-07-23T02:40:41;33.93;;;15.47;;
22030;SDS011;11179;52.106;21.024;2022-07-23T02:43:06;40.90;;;17.77;;
22030;SDS011;11179;52.106;21.024;2022-07-23T02:45:32;32.50;;;17.07;;
22030;SDS011;11179;52.106;21.024;2022-07-23T02:47:57;41.93;;;17.10;;
22030;SDS011;11179;52.106;21.024;2022-07-23T02:50:22;40.37;;;19.50;;
22030;SDS011;11179;52.106;21.024;2022-07-23T02:52:48;29.00;;;17.40;;
22030;SDS011;11179;52.106;21.024;2022-07-23T02:55:13;30.33;;;17.47;;
22030;SDS011;11179;52.106;21.024;2022-07-23T02:57:39;34.47;;;17.90;;
22030;SDS011;11179;52.106;21.024;2022-07-23T03:00:05;28.17;;;18.63;;
22030;SDS011;11179;52.106;21.024;2022-07-23T03:02:31;26.60;;;16.50;;
22030;SDS011;11179;52.106;21.024;2022-07-23T03:04:57;29.57;;;17.93;;
22030;SDS011;11179;52.106;21.024;2022-07-23T03:07:23;27.60;;;17.60;;
22030;SDS011;11179;52.106;21.024;2022-07-23T03:09:48;27.93;;;16.97;;
22030;SDS011;11179;52.106;21.024;2022-07-23T03:12:13;28.13;;;17.13;;
22030;SDS011;11179;52.106;21.024;2022-07-23T03:14:39;28.13;;;16.70;;
22030;SDS011;11179;52.106;21.024;2022-07-23T03:17:05;27.73;;;16.93;;
22030;SDS011;11179;52.106;21.024;2022-07-23T03:19:30;26.30;;;16.70;;
22030;SDS011;11179;52.106;21.024;2022-07-23T03:21:56;27.40;;;17.97;;
22030;SDS011;11179;52.106;21.024;2022-07-23T03:24:21;24.50;;;15.70;;
22030;SDS011;11179;52.106;21.024;2022-07-23T03:26:48;32.07;;;15.37;;
22030;SDS011;11179;52.106;21.024;2022-07-23T03:29:14;26.20;;;15.50;;
22030;SDS011;11179;52.106;21.024;2022-07-23T03:31:39;28.77;;;16.90;;
22030;SDS011;11179;52.106;21.024;2022-07-23T03:34:05;28.13;;;15.70;;
22030;SDS011;11179;52.106;21.024;2022-07-23T03:36:30;26.20;;;15.77;;
22030;SDS011;11179;52.106;21.024;2022-07-23T03:38:55;23.00;;;14.80;;
22030;SDS011;11179;52.106;21.024;2022-07-23T03:41:21;28.83;;;16.20;;
22030;SDS011;11179;52.106;21.024;2022-07-23T03:43:46;22.70;;;15.00;;
22030;SDS011;11179;52.106;21.024;2022-07-23T03:46:12;20.67;;;14.90;;
22030;SDS011;11179;52.106;21.024;2022-07-23T03:48:37;27.37;;;16.33;;
22030;SDS011;11179;52.106;21.024;2022-07-23T03:51:02;21.67;;;14.90;;
22030;SDS011;11179;52.106;21.024;2022-07-23T03:53:28;24.40;;;15.10;;
22030;SDS011;11179;52.106;21.024;2022-07-23T03:55:54;28.93;;;16.40;;
22030;SDS011;11179;52.106;21.024;2022-07-23T03:58:19;27.83;;;16.40;;
22030;SDS011;11179;52.106;21.024;2022-07-23T04:00:44;28.13;;;16.30;;
22030;SDS011;11179;52.106;21.024;2022-07-23T04:03:10;25.40;;;15.50;;
22030;SDS011;11179;52.106;21.024;2022-07-23T04:05:35;29.23;;;16.90;;
22030;SDS011;11179;52.106;21.024;2022-07-23T04:08:00;27.67;;;16.47;;
22030;SDS011;11179;52.106;21.024;2022-07-23T04:10:26;24.67;;;15.20;;
22030;SDS011;11179;52.106;21.024;2022-07-23T04:12:51;24.70;;;14.73;;
22030;SDS011;11179;52.106;21.024;2022-07-23T04:15:16;26.93;;;15.80;;
22030;SDS011;11179;52.106;21.024;2022-07-23T04:17:42;24.63;;;15.37;;
22030;SDS011;11179;52.106;21.024;2022-07-23T04:20:08;34.73;;;15.87;;
22030;SDS011;11179;52.106;21.024;2022-07-23T04:22:35;32.40;;;15.43;;
22030;SDS011;11179;52.106;21.024;2022-07-23T04:25:00;31.00;;;16.27;;
22030;SDS011;11179;52.106;21.024;2022-07-23T04:27:26;27.40;;;14.90;;
22030;SDS011;11179;52.106;21.024;2022-07-23T04:29:51;27.57;;;15.67;;
22030;SDS011;11179;52.106;21.024;2022-07-23T04:32:16;21.60;;;15.17;;
22030;SDS011;11179;52.106;21.024;2022-07-23T04:34:42;21.90;;;15.30;;
22030;SDS011;11179;52.106;21.024;2022-07-23T04:37:07;26.13;;;16.23;;
22030;SDS011;11179;52.106;21.024;2022-07-23T04:39:32;24.23;;;16.00;;
22030;SDS011;11179;52.106;21.024;2022-07-23T04:41:58;21.37;;;15.43;;
22030;SDS011;11179;52.106;21.024;2022-07-23T04:44:23;23.40;;;14.53;;
22030;SDS011;11179;52.106;21.024;2022-07-23T04:46:48;22.70;;;14.70;;
22030;SDS011;11179;52.106;21.024;2022-07-23T04:49:14;25.50;;;13.53;;
22030;SDS011;11179;52.106;21.024;2022-07-23T04:51:39;25.60;;;14.63;;
22030;SDS011;11179;52.106;21.024;2022-07-23T04:54:05;25.60;;;14.80;;
22030;SDS011;11179;52.106;21.024;2022-07-23T04:56:30;20.63;;;13.73;;
22030;SDS011;11179;52.106;21.024;2022-07-23T04:58:55;24.57;;;14.30;;
22030;SDS011;11179;52.106;21.024;2022-07-23T05:01:21;21.30;;;14.23;;
22030;SDS011;11179;52.106;21.024;2022-07-23T05:03:46;22.90;;;14.23;;
22030;SDS011;11179;52.106;21.024;2022-07-23T05:06:13;21.37;;;14.30;;
22030;SDS011;11179;52.106;21.024;2022-07-23T05:08:38;28.43;;;14.80;;
22030;SDS011;11179;52.106;21.024;2022-07-23T05:11:04;20.40;;;13.30;;
22030;SDS011;11179;52.106;21.024;2022-07-23T05:13:29;21.07;;;13.97;;
22030;SDS011;11179;52.106;21.024;2022-07-23T05:15:55;23.97;;;13.37;;
22030;SDS011;11179;52.106;21.024;2022-07-23T05:18:21;28.00;;;15.47;;
22030;SDS011;11179;52.106;21.024;2022-07-23T05:20:46;25.23;;;14.50;;
22030;SDS011;11179;52.106;21.024;2022-07-23T05:23:12;21.30;;;14.37;;
22030;SDS011;11179;52.106;21.024;2022-07-23T05:25:37;22.63;;;13.97;;
22030;SDS011;11179;52.106;21.024;2022-07-23T05:28:02;19.60;;;13.10;;
22030;SDS011;11179;52.106;21.024;2022-07-23T05:30:28;17.87;;;12.47;;
22030;SDS011;11179;52.106;21.024;2022-07-23T05:32:54;32.50;;;12.83;;
22030;SDS011;11179;52.106;21.024;2022-07-23T05:35:19;19.90;;;13.30;;
22030;SDS011;11179;52.106;21.024;2022-07-23T05:37:44;24.20;;;13.20;;
22030;SDS011;11179;52.106;21.024;2022-07-23T05:40:10;19.67;;;12.90;;
22030;SDS011;11179;52.106;21.024;2022-07-23T05:42:39;19.90;;;12.17;;
22030;SDS011;11179;52.106;21.024;2022-07-23T05:45:06;18.00;;;12.60;;
22030;SDS011;11179;52.106;21.024;2022-07-23T05:47:41;19.87;;;13.50;;
22030;SDS011;11179;52.106;21.024;2022-07-23T05:50:16;20.80;;;11.60;;
22030;SDS011;11179;52.106;21.024;2022-07-23T05:52:41;18.43;;;11.50;;
22030;SDS011;11179;52.106;21.024;2022-07-23T05:55:07;19.63;;;12.53;;
22030;SDS011;11179;52.106;21.024;2022-07-23T05:57:34;17.00;;;11.70;;
22030;SDS011;11179;52.106;21.024;2022-07-23T05:59:59;17.60;;;11.40;;
22030;SDS011;11179;52.106;21.024;2022-07-23T06:02:24;17.73;;;11.90;;
22030;SDS011;11179;52.106;21.024;2022-07-23T06:04:50;25.30;;;11.47;;
22030;SDS011;11179;52.106;21.024;2022-07-23T06:07:15;17.40;;;10.60;;
22030;SDS011;11179;52.106;21.024;2022-07-23T06:09:40;16.30;;;9.73;;
22030;SDS011;11179;52.106;21.024;2022-07-23T06:12:06;15.83;;;11.20;;
22030;SDS011;11179;52.106;21.024;2022-07-23T06:14:32;16.20;;;10.33;;
22030;SDS011;11179;52.106;21.024;2022-07-23T06:16:57;16.67;;;9.27;;
22030;SDS011;11179;52.106;21.024;2022-07-23T06:19:22;17.80;;;10.53;;
22030;SDS011;11179;52.106;21.024;2022-07-23T06:21:48;15.90;;;9.77;;
22030;SDS011;11179;52.106;21.024;2022-07-23T06:24:13;16.63;;;9.53;;
22030;SDS011;11179;52.106;21.024;2022-07-23T06:26:39;16.00;;;9.13;;
22030;SDS011;11179;52.106;21.024;2022-07-23T06:29:04;25.43;;;9.97;;
22030;SDS011;11179;52.106;21.024;2022-07-23T06:31:29;17.67;;;9.70;;
22030;SDS011;11179;52.106;21.024;2022-07-23T06:33:54;14.00;;;9.30;;
22030;SDS011;11179;52.106;21.024;2022-07-23T06:36:20;15.13;;;9.90;;
22030;SDS011;11179;52.106;21.024;2022-07-23T06:38:45;14.10;;;9.80;;
22030;SDS011;11179;52.106;21.024;2022-07-23T06:41:11;19.23;;;9.70;;
22030;SDS011;11179;52.106;21.024;2022-07-23T06:43:36;14.93;;;8.73;;
22030;SDS011;11179;52.106;21.024;2022-07-23T06:46:01;13.77;;;9.00;;
22030;SDS011;11179;52.106;21.024;2022-07-23T06:48:27;15.07;;;9.20;;
22030;SDS011;11179;52.106;21.024;2022-07-23T06:50:54;12.77;;;9.53;;
22030;SDS011;11179;52.106;21.024;2022-07-23T06:53:20;12.17;;;8.77;;
22030;SDS011;11179;52.106;21.024;2022-07-23T06:55:45;15.80;;;8.93;;
22030;SDS011;11179;52.106;21.024;2022-07-23T06:58:11;13.80;;;8.43;;
22030;SDS011;11179;52.106;21.024;2022-07-23T07:00:36;10.17;;;8.10;;
22030;SDS011;11179;52.106;21.024;2022-07-23T07:03:01;21.97;;;9.07;;
22030;SDS011;11179;52.106;21.024;2022-07-23T07:05:27;11.43;;;8.53;;
22030;SDS011;11179;52.106;21.024;2022-07-23T07:07:55;14.67;;;8.90;;
22030;SDS011;11179;52.106;21.024;2022-07-23T07:10:21;11.77;;;8.33;;
22030;SDS011;11179;52.106;21.024;2022-07-23T07:12:46;12.00;;;8.37;;
22030;SDS011;11179;52.106;21.024;2022-07-23T07:15:12;13.90;;;8.27;;
22030;SDS011;11179;52.106;21.024;2022-07-23T07:17:37;16.40;;;8.93;;
22030;SDS011;11179;52.106;21.024;2022-07-23T07:20:03;14.07;;;8.80;;
22030;SDS011;11179;52.106;21.024;2022-07-23T07:22:29;15.33;;;8.97;;
22030;SDS011;11179;52.106;21.024;2022-07-23T07:24:54;15.47;;;8.10;;
22030;SDS011;11179;52.106;21.024;2022-07-23T07:27:20;13.70;;;8.80;;
22030;SDS011;11179;52.106;21.024;2022-07-23T07:29:45;11.57;;;8.40;;
22030;SDS011;11179;52.106;21.024;2022-07-23T07:32:11;17.70;;;9.57;;
22030;SDS011;11179;52.106;21.024;2022-07-23T07:34:36;16.50;;;9.00;;
22030;SDS011;11179;52.106;21.024;2022-07-23T07:37:02;16.63;;;8.57;;
22030;SDS011;11179;52.106;21.024;2022-07-23T07:39:27;16.63;;;9.20;;
22030;SDS011;11179;52.106;21.024;2022-07-23T07:41:52;11.23;;;7.80;;
22030;SDS011;11179;52.106;21.024;2022-07-23T07:44:18;12.53;;;8.10;;
22030;SDS011;11179;52.106;21.024;2022-07-23T07:46:43;11.17;;;8.13;;
22030;SDS011;11179;52.106;21.024;2022-07-23T07:49:09;12.90;;;8.23;;
22030;SDS011;11179;52.106;21.024;2022-07-23T07:51:34;12.87;;;8.07;;
22030;SDS011;11179;52.106;21.024;2022-07-23T07:54:00;11.97;;;7.97;;
22030;SDS011;11179;52.106;21.024;2022-07-23T07:56:25;14.33;;;8.60;;
22030;SDS011;11179;52.106;21.024;2022-07-23T07:58:51;13.47;;;8.13;;
22030;SDS011;11179;52.106;21.024;2022-07-23T08:01:16;9.73;;;7.27;;
22030;SDS011;11179;52.106;21.024;2022-07-23T08:03:42;11.20;;;8.17;;
22030;SDS011;11179;52.106;21.024;2022-07-23T08:06:07;14.07;;;7.53;;
22030;SDS011;11179;52.106;21.024;2022-07-23T08:08:33;13.83;;;7.40;;
22030;SDS011;11179;52.106;21.024;2022-07-23T08:10:58;16.80;;;8.03;;
22030;SDS011;11179;52.106;21.024;2022-07-23T08:13:23;12.03;;;7.60;;
22030;SDS011;11179;52.106;21.024;2022-07-23T08:15:49;13.07;;;8.10;;
22030;SDS011;11179;52.106;21.024;2022-07-23T08:18:14;11.53;;;7.03;;
22030;SDS011;11179;52.106;21.024;2022-07-23T08:20:40;11.67;;;6.97;;
22030;SDS011;11179;52.106;21.024;2022-07-23T08:23:06;13.43;;;7.37;;
22030;SDS011;11179;52.106;21.024;2022-07-23T08:25:39;11.20;;;7.57;;
22030;SDS011;11179;52.106;21.024;2022-07-23T08:28:11;16.70;;;7.87;;
22030;SDS011;11179;52.106;21.024;2022-07-23T08:30:39;12.40;;;7.43;;
22030;SDS011;11179;52.106;21.024;2022-07-23T08:33:07;14.17;;;8.50;;
22030;SDS011;11179;52.106;21.024;2022-07-23T08:35:39;12.60;;;7.93;;
22030;SDS011;11179;52.106;21.024;2022-07-23T08:38:08;13.80;;;6.97;;
22030;SDS011;11179;52.106;21.024;2022-07-23T08:40:35;12.93;;;7.30;;
22030;SDS011;11179;52.106;21.024;2022-07-23T08:43:06;13.50;;;8.40;;
22030;SDS011;11179;52.106;21.024;2022-07-23T08:45:52;13.63;;;7.30;;
22030;SDS011;11179;52.106;21.024;2022-07-23T08:48:19;15.80;;;7.30;;
22030;SDS011;11179;52.106;21.024;2022-07-23T08:50:50;11.37;;;7.17;;
22030;SDS011;11179;52.106;21.024;2022-07-23T08:53:17;15.10;;;8.50;;
22030;SDS011;11179;52.106;21.024;2022-07-23T08:55:44;12.50;;;7.93;;
22030;SDS011;11179;52.106;21.024;2022-07-23T08:58:11;13.47;;;7.90;;
22030;SDS011;11179;52.106;21.024;2022-07-23T09:00:36;18.37;;;8.53;;
22030;SDS011;11179;52.106;21.024;2022-07-23T09:03:02;14.87;;;8.10;;
22030;SDS011;11179;52.106;21.024;2022-07-23T09:05:27;12.13;;;7.00;;
22030;SDS011;11179;52.106;21.024;2022-07-23T09:10:47;15.80;;;7.30;;
22030;SDS011;11179;52.106;21.024;2022-07-23T09:16:13;14.27;;;7.43;;
22030;SDS011;11179;52.106;21.024;2022-07-23T09:18:42;16.40;;;8.30;;
22030;SDS011;11179;52.106;21.024;2022-07-23T09:21:13;13.23;;;7.87;;
22030;SDS011;11179;52.106;21.024;2022-07-23T09:29:04;12.90;;;7.60;;
22030;SDS011;11179;52.106;21.024;2022-07-23T09:31:46;16.03;;;8.43;;
22030;SDS011;11179;52.106;21.024;2022-07-23T09:36:46;11.97;;;8.17;;
22030;SDS011;11179;52.106;21.024;2022-07-23T09:39:13;11.33;;;7.27;;
22030;SDS011;11179;52.106;21.024;2022-07-23T09:41:41;11.10;;;7.70;;
22030;SDS011;11179;52.106;21.024;2022-07-23T09:44:12;15.43;;;8.00;;
22030;SDS011;11179;52.106;21.024;2022-07-23T09:46:47;14.07;;;7.67;;
22030;SDS011;11179;52.106;21.024;2022-07-23T09:49:15;12.40;;;7.40;;
22030;SDS011;11179;52.106;21.024;2022-07-23T09:54:26;12.73;;;7.13;;
22030;SDS011;11179;52.106;21.024;2022-07-23T09:56:57;10.73;;;7.20;;
22030;SDS011;11179;52.106;21.024;2022-07-23T09:59:25;12.27;;;7.30;;
22030;SDS011;11179;52.106;21.024;2022-07-23T10:01:56;16.03;;;7.97;;
22030;SDS011;11179;52.106;21.024;2022-07-23T10:04:24;11.50;;;7.60;;
22030;SDS011;11179;52.106;21.024;2022-07-23T10:06:54;12.73;;;7.70;;
22030;SDS011;11179;52.106;21.024;2022-07-23T10:09:23;13.83;;;7.50;;
22030;SDS011;11179;52.106;21.024;2022-07-23T10:11:57;23.23;;;8.00;;
22030;SDS011;11179;52.106;21.024;2022-07-23T10:14:32;12.13;;;7.00;;
22030;SDS011;11179;52.106;21.024;2022-07-23T10:17:00;10.47;;;7.37;;
22030;SDS011;11179;52.106;21.024;2022-07-23T10:19:26;14.60;;;7.83;;
22030;SDS011;11179;52.106;21.024;2022-07-23T10:21:55;10.40;;;7.30;;
22030;SDS011;11179;52.106;21.024;2022-07-23T10:30:08;12.60;;;6.70;;
22030;SDS011;11179;52.106;21.024;2022-07-23T10:38:27;11.50;;;7.10;;
22030;SDS011;11179;52.106;21.024;2022-07-23T10:40:59;9.80;;;7.00;;
22030;SDS011;11179;52.106;21.024;2022-07-23T10:43:26;9.67;;;6.87;;
22030;SDS011;11179;52.106;21.024;2022-07-23T10:45:54;12.47;;;7.27;;
22030;SDS011;11179;52.106;21.024;2022-07-23T10:48:24;14.70;;;7.47;;
22030;SDS011;11179;52.106;21.024;2022-07-23T10:56:14;11.23;;;6.90;;
22030;SDS011;11179;52.106;21.024;2022-07-23T10:58:46;15.30;;;7.63;;
22030;SDS011;11179;52.106;21.024;2022-07-23T11:03:59;13.33;;;7.20;;
22030;SDS011;11179;52.106;21.024;2022-07-23T11:06:47;13.00;;;7.40;;
22030;SDS011;11179;52.106;21.024;2022-07-23T11:09:26;18.90;;;7.63;;
22030;SDS011;11179;52.106;21.024;2022-07-23T11:17:26;11.70;;;6.73;;
22030;SDS011;11179;52.106;21.024;2022-07-23T11:22:37;11.20;;;7.30;;
22030;SDS011;11179;52.106;21.024;2022-07-23T11:27:48;13.10;;;7.63;;
22030;SDS011;11179;52.106;21.024;2022-07-23T11:33:38;15.30;;;8.27;;
22030;SDS011;11179;52.106;21.024;2022-07-23T11:35:42;17.67;;;8.03;;
22030;SDS011;11179;52.106;21.024;2022-07-23T11:38:15;10.20;;;6.70;;
22030;SDS011;11179;52.106;21.024;2022-07-23T11:40:53;11.17;;;6.87;;
22030;SDS011;11179;52.106;21.024;2022-07-23T11:43:21;14.97;;;7.80;;
22030;SDS011;11179;52.106;21.024;2022-07-23T11:45:48;11.37;;;7.10;;
22030;SDS011;11179;52.106;21.024;2022-07-23T11:48:17;12.80;;;8.17;;
22030;SDS011;11179;52.106;21.024;2022-07-23T11:50:43;9.47;;;7.00;;
22030;SDS011;11179;52.106;21.024;2022-07-23T11:53:08;12.23;;;7.97;;
22030;SDS011;11179;52.106;21.024;2022-07-23T11:55:34;11.30;;;7.73;;
22030;SDS011;11179;52.106;21.024;2022-07-23T11:58:00;12.00;;;8.40;;
22030;SDS011;11179;52.106;21.024;2022-07-23T12:00:26;11.93;;;7.70;;
22030;SDS011;11179;52.106;21.024;2022-07-23T12:02:58;15.40;;;7.70;;
22030;SDS011;11179;52.106;21.024;2022-07-23T12:05:27;13.57;;;8.10;;
22030;SDS011;11179;52.106;21.024;2022-07-23T12:07:54;19.47;;;9.00;;
22030;SDS011;11179;52.106;21.024;2022-07-23T12:10:22;14.60;;;8.30;;
22030;SDS011;11179;52.106;21.024;2022-07-23T12:15:16;13.90;;;7.97;;
22030;SDS011;11179;52.106;21.024;2022-07-23T12:17:47;14.93;;;7.70;;
22030;SDS011;11179;52.106;21.024;2022-07-23T12:20:15;12.00;;;8.13;;
22030;SDS011;11179;52.106;21.024;2022-07-23T12:22:43;11.63;;;8.23;;
22030;SDS011;11179;52.106;21.024;2022-07-23T12:25:12;13.47;;;8.13;;
22030;SDS011;11179;52.106;21.024;2022-07-23T12:27:40;12.00;;;7.40;;
22030;SDS011;11179;52.106;21.024;2022-07-23T12:30:19;12.77;;;7.80;;
22030;SDS011;11179;52.106;21.024;2022-07-23T12:32:50;10.80;;;7.17;;
22030;SDS011;11179;52.106;21.024;2022-07-23T12:35:17;12.83;;;7.50;;
22030;SDS011;11179;52.106;21.024;2022-07-23T12:37:44;12.53;;;7.53;;
22030;SDS011;11179;52.106;21.024;2022-07-23T12:43:18;13.17;;;8.57;;
22030;SDS011;11179;52.106;21.024;2022-07-23T12:45:46;11.13;;;7.67;;
22030;SDS011;11179;52.106;21.024;2022-07-23T12:48:16;12.00;;;8.13;;
22030;SDS011;11179;52.106;21.024;2022-07-23T12:50:49;13.33;;;7.77;;
22030;SDS011;11179;52.106;21.024;2022-07-23T12:53:40;18.10;;;8.10;;
22030;SDS011;11179;52.106;21.024;2022-07-23T12:56:07;14.20;;;7.70;;
22030;SDS011;11179;52.106;21.024;2022-07-23T12:59:33;13.50;;;7.80;;
22030;SDS011;11179;52.106;21.024;2022-07-23T13:01:28;18.40;;;8.03;;
22030;SDS011;11179;52.106;21.024;2022-07-23T13:03:56;12.10;;;7.63;;
22030;SDS011;11179;52.106;21.024;2022-07-23T13:06:28;17.17;;;8.07;;
22030;SDS011;11179;52.106;21.024;2022-07-23T13:08:55;18.40;;;7.60;;
22030;SDS011;11179;52.106;21.024;2022-07-23T13:11:21;11.00;;;7.90;;
22030;SDS011;11179;52.106;21.024;2022-07-23T13:13:46;15.80;;;7.90;;
22030;SDS011;11179;52.106;21.024;2022-07-23T13:16:12;12.30;;;8.03;;
22030;SDS011;11179;52.106;21.024;2022-07-23T13:18:37;10.87;;;8.17;;
22030;SDS011;11179;52.106;21.024;2022-07-23T13:21:04;11.70;;;8.80;;
22030;SDS011;11179;52.106;21.024;2022-07-23T13:23:29;11.57;;;8.53;;
22030;SDS011;11179;52.106;21.024;2022-07-23T13:25:55;12.50;;;8.57;;
22030;SDS011;11179;52.106;21.024;2022-07-23T13:28:21;13.80;;;8.50;;
22030;SDS011;11179;52.106;21.024;2022-07-23T13:30:48;20.53;;;8.00;;
22030;SDS011;11179;52.106;21.024;2022-07-23T13:33:18;14.80;;;8.20;;
22030;SDS011;11179;52.106;21.024;2022-07-23T13:35:45;12.90;;;8.20;;
22030;SDS011;11179;52.106;21.024;2022-07-23T13:38:10;17.67;;;8.50;;
22030;SDS011;11179;52.106;21.024;2022-07-23T13:40:40;12.83;;;7.87;;
22030;SDS011;11179;52.106;21.024;2022-07-23T13:43:07;10.90;;;8.00;;
22030;SDS011;11179;52.106;21.024;2022-07-23T13:45:38;12.33;;;8.77;;
22030;SDS011;11179;52.106;21.024;2022-07-23T13:48:04;13.80;;;7.90;;
22030;SDS011;11179;52.106;21.024;2022-07-23T13:50:31;14.40;;;8.03;;
22030;SDS011;11179;52.106;21.024;2022-07-23T13:52:57;12.60;;;8.10;;
22030;SDS011;11179;52.106;21.024;2022-07-23T13:55:26;14.83;;;8.90;;
22030;SDS011;11179;52.106;21.024;2022-07-23T13:57:51;14.10;;;8.60;;
22030;SDS011;11179;52.106;21.024;2022-07-23T14:00:17;14.57;;;8.27;;
22030;SDS011;11179;52.106;21.024;2022-07-23T14:02:42;12.30;;;8.13;;
22030;SDS011;11179;52.106;21.024;2022-07-23T14:05:08;17.50;;;7.90;;
22030;SDS011;11179;52.106;21.024;2022-07-23T14:07:35;13.27;;;8.60;;
22030;SDS011;11179;52.106;21.024;2022-07-23T14:10:02;12.90;;;8.80;;
22030;SDS011;11179;52.106;21.024;2022-07-23T14:12:28;15.30;;;8.20;;
22030;SDS011;11179;52.106;21.024;2022-07-23T14:14:54;12.37;;;7.73;;
22030;SDS011;11179;52.106;21.024;2022-07-23T14:17:19;13.40;;;9.10;;
22030;SDS011;11179;52.106;21.024;2022-07-23T14:19:44;15.87;;;10.47;;
22030;SDS011;11179;52.106;21.024;2022-07-23T14:22:10;12.00;;;8.50;;
22030;SDS011;11179;52.106;21.024;2022-07-23T14:24:35;16.43;;;9.03;;
22030;SDS011;11179;52.106;21.024;2022-07-23T14:27:02;13.50;;;9.93;;
22030;SDS011;11179;52.106;21.024;2022-07-23T14:29:28;18.80;;;12.50;;
22030;SDS011;11179;52.106;21.024;2022-07-23T14:31:54;16.23;;;9.20;;
22030;SDS011;11179;52.106;21.024;2022-07-23T14:34:19;13.50;;;8.63;;
22030;SDS011;11179;52.106;21.024;2022-07-23T14:36:45;14.80;;;9.77;;
22030;SDS011;11179;52.106;21.024;2022-07-23T14:39:10;15.83;;;10.77;;
22030;SDS011;11179;52.106;21.024;2022-07-23T14:41:37;13.90;;;8.87;;
22030;SDS011;11179;52.106;21.024;2022-07-23T14:44:02;49.37;;;8.00;;
22030;SDS011;11179;52.106;21.024;2022-07-23T14:46:28;42.67;;;7.37;;
22030;SDS011;11179;52.106;21.024;2022-07-23T14:48:53;30.00;;;6.80;;
22030;SDS011;11179;52.106;21.024;2022-07-23T14:51:22;28.53;;;6.90;;
22030;SDS011;11179;52.106;21.024;2022-07-23T14:53:48;34.87;;;7.27;;
22030;SDS011;11179;52.106;21.024;2022-07-23T14:56:13;29.37;;;6.53;;
22030;SDS011;11179;52.106;21.024;2022-07-23T14:58:39;11.53;;;6.07;;
22030;SDS011;11179;52.106;21.024;2022-07-23T15:01:05;13.53;;;5.00;;
22030;SDS011;11179;52.106;21.024;2022-07-23T15:03:31;11.80;;;5.30;;
22030;SDS011;11179;52.106;21.024;2022-07-23T15:05:56;9.73;;;5.43;;
22030;SDS011;11179;52.106;21.024;2022-07-23T15:08:22;11.13;;;5.50;;
22030;SDS011;11179;52.106;21.024;2022-07-23T15:10:47;12.53;;;5.77;;